Cal Nev Ari, Nevada
Current Conditions -  °F | °C
As of 6:15 PM on Friday 28 Nov 2014 (Local Time) from KIFP Reporting Station
Clear Clear  
Wind Chill: 18°   Ceiling: Unl
Heat Index: 18°   Visibility: 10mi
Dew Point: -5°   Wind: 6mph
Humidity: 21%   Direction: 130°SE
Pressure: 29.89"   Gusts: NA
Location:  35.46°N, 114.92°W
Report Text: KIFP 290215Z AUTO 13005KT 10SM CLR 18/M05 A2989 RMK AO2
Loading
Personal Weather Stations






























Interactive Weather Map New forecast layout! Learn more

10-Day Weather Forecast

Advertisements
Track Severe Weather on mobile